sensor_id;sensor_type;location;lat;lon;timestamp;pressure;altitude;pressure_sealevel;temperature;humidity
44144;BME280;43510;51.920;4.492;2022-08-03T00:00:33;68489.63;;;23.73;89.64
44144;BME280;43510;51.920;4.492;2022-08-03T00:03:00;68489.91;;;23.78;89.87
44144;BME280;43510;51.920;4.492;2022-08-03T00:05:25;68492.59;;;23.78;90.08
44144;BME280;43510;51.920;4.492;2022-08-03T00:07:52;68490.34;;;23.76;90.45
44144;BME280;43510;51.920;4.492;2022-08-03T00:10:17;68493.72;;;23.79;90.22
44144;BME280;43510;51.920;4.492;2022-08-03T00:12:43;68496.25;;;23.77;90.39
44144;BME280;43510;51.920;4.492;2022-08-03T00:15:08;68499.50;;;23.77;90.73
44144;BME280;43510;51.920;4.492;2022-08-03T00:17:34;68481.47;;;23.71;91.75
44144;BME280;43510;51.920;4.492;2022-08-03T00:20:00;68488.94;;;23.70;92.05
44144;BME280;43510;51.920;4.492;2022-08-03T00:22:25;68477.94;;;23.65;92.68
44144;BME280;43510;51.920;4.492;2022-08-03T00:24:51;68477.22;;;23.62;93.40
44144;BME280;43510;51.920;4.492;2022-08-03T00:27:16;68475.13;;;23.63;93.97
44144;BME280;43510;51.920;4.492;2022-08-03T00:29:41;68471.44;;;23.54;94.51
44144;BME280;43510;51.920;4.492;2022-08-03T00:32:07;68465.41;;;23.51;94.57
44144;BME280;43510;51.920;4.492;2022-08-03T00:34:32;68467.22;;;23.55;94.81
44144;BME280;43510;51.920;4.492;2022-08-03T00:36:58;68455.09;;;23.40;95.39
44144;BME280;43510;51.920;4.492;2022-08-03T00:39:23;68455.78;;;23.43;95.70
44144;BME280;43510;51.920;4.492;2022-08-03T00:41:48;68449.75;;;23.40;95.68
44144;BME280;43510;51.920;4.492;2022-08-03T00:44:14;68451.84;;;23.39;95.69
44144;BME280;43510;51.920;4.492;2022-08-03T00:46:39;68461.44;;;23.48;95.58
44144;BME280;43510;51.920;4.492;2022-08-03T00:49:06;68464.13;;;23.48;95.86
44144;BME280;43510;51.920;4.492;2022-08-03T00:51:32;68453.09;;;23.43;95.66
44144;BME280;43510;51.920;4.492;2022-08-03T00:53:58;68455.09;;;23.40;96.06
44144;BME280;43510;51.920;4.492;2022-08-03T00:56:23;68446.78;;;23.35;96.58
44144;BME280;43510;51.920;4.492;2022-08-03T00:58:49;68444.94;;;23.31;97.14
44144;BME280;43510;51.920;4.492;2022-08-03T01:01:15;68434.50;;;23.26;97.67
44144;BME280;43510;51.920;4.492;2022-08-03T01:03:41;68424.50;;;23.19;98.22
44144;BME280;43510;51.920;4.492;2022-08-03T01:06:33;68437.19;;;23.26;97.87
44144;BME280;43510;51.920;4.492;2022-08-03T01:11:50;68421.56;;;23.14;98.52
44144;BME280;43510;51.920;4.492;2022-08-03T01:14:38;68424.38;;;23.17;98.53
44144;BME280;43510;51.920;4.492;2022-08-03T01:17:24;68426.06;;;23.18;98.13
44144;BME280;43510;51.920;4.492;2022-08-03T01:20:07;68422.13;;;23.15;98.10
44144;BME280;43510;51.920;4.492;2022-08-03T01:30:59;68417.47;;;23.08;97.72
44144;BME280;43510;51.920;4.492;2022-08-03T01:33:42;68423.81;;;23.16;97.66
44144;BME280;43510;51.920;4.492;2022-08-03T01:36:18;68441.84;;;23.33;96.49
44144;BME280;43510;51.920;4.492;2022-08-03T01:39:05;68423.66;;;23.14;96.83
44144;BME280;43510;51.920;4.492;2022-08-03T01:41:57;68425.94;;;23.16;97.07
44144;BME280;43510;51.920;4.492;2022-08-03T01:44:25;68411.44;;;23.05;97.23
44144;BME280;43510;51.920;4.492;2022-08-03T01:46:55;68403.09;;;23.00;97.35
44144;BME280;43510;51.920;4.492;2022-08-03T01:49:23;68401.84;;;22.97;97.29
44144;BME280;43510;51.920;4.492;2022-08-03T01:51:50;68406.06;;;22.96;97.31
44144;BME280;43510;51.920;4.492;2022-08-03T01:54:17;68403.81;;;22.94;98.08
44144;BME280;43510;51.920;4.492;2022-08-03T01:56:45;68393.38;;;22.89;98.12
44144;BME280;43510;51.920;4.492;2022-08-03T01:59:15;68396.63;;;22.90;98.21
44144;BME280;43510;51.920;4.492;2022-08-03T02:01:42;68391.72;;;22.88;97.92
44144;BME280;43510;51.920;4.492;2022-08-03T02:04:09;68390.00;;;22.86;98.34
44144;BME280;43510;51.920;4.492;2022-08-03T02:06:39;68387.63;;;22.82;99.17
44144;BME280;43510;51.920;4.492;2022-08-03T02:09:07;68376.78;;;22.79;99.68
44144;BME280;43510;51.920;4.492;2022-08-03T02:11:33;68378.75;;;22.76;100.00
44144;BME280;43510;51.920;4.492;2022-08-03T02:14:02;68372.53;;;22.70;100.00
44144;BME280;43510;51.920;4.492;2022-08-03T02:16:30;68371.25;;;22.67;100.00
44144;BME280;43510;51.920;4.492;2022-08-03T02:18:58;68365.22;;;22.64;100.00
44144;BME280;43510;51.920;4.492;2022-08-03T02:21:28;68365.63;;;22.62;100.00
44144;BME280;43510;51.920;4.492;2022-08-03T02:23:54;68364.91;;;22.59;100.00
44144;BME280;43510;51.920;4.492;2022-08-03T02:26:20;68359.84;;;22.54;100.00
44144;BME280;43510;51.920;4.492;2022-08-03T02:28:51;68358.16;;;22.53;100.00
44144;BME280;43510;51.920;4.492;2022-08-03T02:31:23;68352.81;;;22.53;100.00
44144;BME280;43510;51.920;4.492;2022-08-03T02:33:53;68354.38;;;22.52;100.00
44144;BME280;43510;51.920;4.492;2022-08-03T02:36:23;68350.00;;;22.50;100.00
44144;BME280;43510;51.920;4.492;2022-08-03T02:38:54;68349.72;;;22.45;100.00
44144;BME280;43510;51.920;4.492;2022-08-03T02:41:22;68343.25;;;22.44;100.00
44144;BME280;43510;51.920;4.492;2022-08-03T02:43:53;68339.28;;;22.40;100.00
44144;BME280;43510;51.920;4.492;2022-08-03T02:46:19;68330.84;;;22.33;100.00
44144;BME280;43510;51.920;4.492;2022-08-03T02:48:47;68326.91;;;22.29;100.00
44144;BME280;43510;51.920;4.492;2022-08-03T02:51:17;68326.34;;;22.29;100.00
44144;BME280;43510;51.920;4.492;2022-08-03T02:53:44;68331.84;;;22.31;100.00
44144;BME280;43510;51.920;4.492;2022-08-03T02:56:10;68330.28;;;22.32;100.00
44144;BME280;43510;51.920;4.492;2022-08-03T02:58:38;68333.94;;;22.31;100.00
44144;BME280;43510;51.920;4.492;2022-08-03T03:01:05;68333.38;;;22.30;100.00
44144;BME280;43510;51.920;4.492;2022-08-03T03:03:32;68329.56;;;22.29;100.00
44144;BME280;43510;51.920;4.492;2022-08-03T03:05:59;68331.69;;;22.29;100.00
44144;BME280;43510;51.920;4.492;2022-08-03T03:08:25;68330.13;;;22.30;100.00
44144;BME280;43510;51.920;4.492;2022-08-03T03:10:52;68324.66;;;22.27;100.00
44144;BME280;43510;51.920;4.492;2022-08-03T03:13:18;68325.78;;;22.28;100.00
44144;BME280;43510;51.920;4.492;2022-08-03T03:15:46;68327.34;;;22.27;100.00
44144;BME280;43510;51.920;4.492;2022-08-03T03:18:13;68330.56;;;22.28;100.00
44144;BME280;43510;51.920;4.492;2022-08-03T03:20:41;68324.66;;;22.27;100.00
44144;BME280;43510;51.920;4.492;2022-08-03T03:23:08;68322.25;;;22.23;100.00
44144;BME280;43510;51.920;4.492;2022-08-03T03:25:34;68325.63;;;22.26;100.00
44144;BME280;43510;51.920;4.492;2022-08-03T03:28:00;68322.81;;;22.23;100.00
44144;BME280;43510;51.920;4.492;2022-08-03T03:30:27;68313.38;;;22.17;100.00
44144;BME280;43510;51.920;4.492;2022-08-03T03:32:54;68310.88;;;22.10;100.00
44144;BME280;43510;51.920;4.492;2022-08-03T03:35:19;68302.13;;;22.07;100.00
44144;BME280;43510;51.920;4.492;2022-08-03T03:37:45;68297.06;;;22.03;100.00
44144;BME280;43510;51.920;4.492;2022-08-03T03:40:11;68310.88;;;22.10;100.00
44144;BME280;43510;51.920;4.492;2022-08-03T03:42:39;68307.63;;;22.10;100.00
44144;BME280;43510;51.920;4.492;2022-08-03T03:45:06;68306.34;;;22.06;100.00
44144;BME280;43510;51.920;4.492;2022-08-03T03:47:33;68305.94;;;22.08;100.00
44144;BME280;43510;51.920;4.492;2022-08-03T03:49:58;68305.38;;;22.08;100.00
44144;BME280;43510;51.920;4.492;2022-08-03T03:52:24;68304.09;;;22.04;100.00
44144;BME280;43510;51.920;4.492;2022-08-03T03:54:49;68300.44;;;22.06;100.00
44144;BME280;43510;51.920;4.492;2022-08-03T03:57:15;68309.00;;;22.06;100.00
44144;BME280;43510;51.920;4.492;2022-08-03T03:59:41;68298.22;;;22.04;100.00
44144;BME280;43510;51.920;4.492;2022-08-03T04:02:07;68297.63;;;22.03;100.00
44144;BME280;43510;51.920;4.492;2022-08-03T04:04:34;68300.31;;;22.03;100.00
44144;BME280;43510;51.920;4.492;2022-08-03T04:07:19;68295.38;;;22.01;100.00
44144;BME280;43510;51.920;4.492;2022-08-03T04:10:28;68300.31;;;22.03;100.00
44144;BME280;43510;51.920;4.492;2022-08-03T04:13:13;68296.91;;;22.00;100.00
44144;BME280;43510;51.920;4.492;2022-08-03T04:15:41;68289.34;;;21.98;100.00
44144;BME280;43510;51.920;4.492;2022-08-03T04:18:09;68297.34;;;21.98;100.00
44144;BME280;43510;51.920;4.492;2022-08-03T04:20:37;68294.25;;;22.00;100.00
44144;BME280;43510;51.920;4.492;2022-08-03T04:23:04;68305.22;;;22.05;100.00
44144;BME280;43510;51.920;4.492;2022-08-03T04:25:33;68297.63;;;22.03;100.00
44144;BME280;43510;51.920;4.492;2022-08-03T04:28:04;68300.31;;;22.03;100.00
44144;BME280;43510;51.920;4.492;2022-08-03T04:30:32;68299.75;;;22.03;100.00
44144;BME280;43510;51.920;4.492;2022-08-03T04:33:01;68305.22;;;22.05;100.00
44144;BME280;43510;51.920;4.492;2022-08-03T04:35:32;68308.75;;;22.11;100.00
44144;BME280;43510;51.920;4.492;2022-08-03T04:38:05;68307.19;;;22.12;100.00
44144;BME280;43510;51.920;4.492;2022-08-03T04:40:36;68307.19;;;22.12;100.00
44144;BME280;43510;51.920;4.492;2022-08-03T04:43:05;68304.25;;;22.07;100.00
44144;BME280;43510;51.920;4.492;2022-08-03T04:45:32;68298.63;;;22.02;100.00
44144;BME280;43510;51.920;4.492;2022-08-03T04:47:58;68294.81;;;22.01;100.00
44144;BME280;43510;51.920;4.492;2022-08-03T04:50:25;68288.78;;;21.97;100.00
44144;BME280;43510;51.920;4.492;2022-08-03T04:52:52;68296.50;;;22.02;100.00
44144;BME280;43510;51.920;4.492;2022-08-03T04:55:31;68313.66;;;22.13;100.00
44144;BME280;43510;51.920;4.492;2022-08-03T04:57:58;68306.06;;;22.11;100.00
44144;BME280;43510;51.920;4.492;2022-08-03T05:00:24;68302.13;;;22.07;100.00
44144;BME280;43510;51.920;4.492;2022-08-03T05:02:51;68299.75;;;22.03;100.00
44144;BME280;43510;51.920;4.492;2022-08-03T05:05:18;68298.78;;;22.04;100.00
44144;BME280;43510;51.920;4.492;2022-08-03T05:07:43;68295.94;;;22.02;100.00
44144;BME280;43510;51.920;4.492;2022-08-03T05:10:10;68299.75;;;22.03;100.00
44144;BME280;43510;51.920;4.492;2022-08-03T05:12:35;68311.56;;;22.13;100.00
44144;BME280;43510;51.920;4.492;2022-08-03T05:15:02;68321.16;;;22.22;100.00
44144;BME280;43510;51.920;4.492;2022-08-03T05:17:28;68335.34;;;22.37;100.00
44144;BME280;43510;51.920;4.492;2022-08-03T05:19:53;68350.00;;;22.50;100.00
44144;BME280;43510;51.920;4.492;2022-08-03T05:22:19;68360.13;;;22.59;100.00
44144;BME280;43510;51.920;4.492;2022-08-03T05:24:45;68379.59;;;22.72;100.00
44144;BME280;43510;51.920;4.492;2022-08-03T05:27:10;68386.06;;;22.83;100.00
44144;BME280;43510;51.920;4.492;2022-08-03T05:29:41;68405.66;;;22.98;100.00
44144;BME280;43510;51.920;4.492;2022-08-03T05:32:07;68416.34;;;23.07;99.23
44144;BME280;43510;51.920;4.492;2022-08-03T05:34:32;68410.72;;;23.02;98.68
44144;BME280;43510;51.920;4.492;2022-08-03T05:36:58;68417.63;;;23.11;97.97
44144;BME280;43510;51.920;4.492;2022-08-03T05:39:23;68425.66;;;23.20;97.26
44144;BME280;43510;51.920;4.492;2022-08-03T05:41:52;68433.25;;;23.23;97.31
44144;BME280;43510;51.920;4.492;2022-08-03T05:44:18;68432.81;;;23.25;96.64
44144;BME280;43510;51.920;4.492;2022-08-03T05:46:43;68435.09;;;23.27;96.11
44144;BME280;43510;51.920;4.492;2022-08-03T05:49:08;68436.78;;;23.28;96.09
44144;BME280;43510;51.920;4.492;2022-08-03T05:51:34;68435.09;;;23.27;95.96
44144;BME280;43510;51.920;4.492;2022-08-03T05:54:01;68435.66;;;23.27;96.15
44144;BME280;43510;51.920;4.492;2022-08-03T05:58:51;68462.72;;;23.51;95.54
44144;BME280;43510;51.920;4.492;2022-08-03T06:01:18;68482.44;;;23.69;94.55
44144;BME280;43510;51.920;4.492;2022-08-03T06:03:46;68500.19;;;23.80;93.22
44144;BME280;43510;51.920;4.492;2022-08-03T06:06:11;68508.38;;;23.92;92.55
44144;BME280;43510;51.920;4.492;2022-08-03T06:08:38;68520.09;;;24.00;91.71
44144;BME280;43510;51.920;4.492;2022-08-03T06:11:04;68525.84;;;24.08;91.11
44144;BME280;43510;51.920;4.492;2022-08-03T06:13:29;68526.97;;;24.09;90.45
44144;BME280;43510;51.920;4.492;2022-08-03T06:15:55;68528.53;;;24.08;90.48
44144;BME280;43510;51.920;4.492;2022-08-03T06:18:20;68531.47;;;24.13;90.38
44144;BME280;43510;51.920;4.492;2022-08-03T06:20:45;68542.66;;;24.21;90.11
44144;BME280;43510;51.920;4.492;2022-08-03T06:23:11;68564.22;;;24.43;88.81
44144;BME280;43510;51.920;4.492;2022-08-03T06:25:36;68579.31;;;24.54;87.88
44144;BME280;43510;51.920;4.492;2022-08-03T06:28:02;68584.53;;;24.61;87.43
44144;BME280;43510;51.920;4.492;2022-08-03T06:30:29;68592.28;;;24.65;87.01
44144;BME280;43510;51.920;4.492;2022-08-03T06:32:54;68602.56;;;24.77;86.29
44144;BME280;43510;51.920;4.492;2022-08-03T06:35:20;68610.22;;;24.89;85.31
44144;BME280;43510;51.920;4.492;2022-08-03T06:37:48;68612.16;;;24.86;84.86
44144;BME280;43510;51.920;4.492;2022-08-03T06:40:16;68623.31;;;24.93;84.69
44144;BME280;43510;51.920;4.492;2022-08-03T06:42:43;68637.59;;;25.08;83.68
44144;BME280;43510;51.920;4.492;2022-08-03T06:45:17;68631.22;;;25.00;82.95
44144;BME280;43510;51.920;4.492;2022-08-03T06:47:42;68618.25;;;24.89;83.16
44144;BME280;43510;51.920;4.492;2022-08-03T06:50:08;68622.34;;;24.95;82.68
44144;BME280;43510;51.920;4.492;2022-08-03T06:52:34;68646.03;;;25.16;81.78
44144;BME280;43510;51.920;4.492;2022-08-03T06:55:02;68658.16;;;25.32;80.85
44144;BME280;43510;51.920;4.492;2022-08-03T06:57:28;68672.00;;;25.39;79.93
44144;BME280;43510;51.920;4.492;2022-08-03T06:59:53;68674.66;;;25.39;79.83
44144;BME280;43510;51.920;4.492;2022-08-03T07:02:20;68699.97;;;25.59;79.33
44144;BME280;43510;51.920;4.492;2022-08-03T07:04:47;68697.44;;;25.62;78.16
44144;BME280;43510;51.920;4.492;2022-08-03T07:07:14;68692.91;;;25.58;78.60
44144;BME280;43510;51.920;4.492;2022-08-03T07:09:39;68702.34;;;25.64;78.50
44144;BME280;43510;51.920;4.492;2022-08-03T07:12:05;68737.63;;;26.00;77.05
44144;BME280;43510;51.920;4.492;2022-08-03T07:14:30;68770.28;;;26.27;75.18
44144;BME280;43510;51.920;4.492;2022-08-03T07:16:57;68785.50;;;26.41;74.83
44144;BME280;43510;51.920;4.492;2022-08-03T07:19:22;68790.16;;;26.48;73.85
44144;BME280;43510;51.920;4.492;2022-08-03T07:21:48;68799.22;;;26.56;73.04
44144;BME280;43510;51.920;4.492;2022-08-03T07:24:13;68850.94;;;26.97;71.64
44144;BME280;43510;51.920;4.492;2022-08-03T07:26:39;68895.00;;;27.37;69.58
44144;BME280;43510;51.920;4.492;2022-08-03T07:29:04;68915.63;;;27.60;67.61
44144;BME280;43510;51.920;4.492;2022-08-03T07:31:29;68925.25;;;27.69;66.76
44144;BME280;43510;51.920;4.492;2022-08-03T07:33:55;68919.03;;;27.63;66.31
44144;BME280;43510;51.920;4.492;2022-08-03T07:36:20;68931.31;;;27.72;66.43
44144;BME280;43510;51.920;4.492;2022-08-03T07:38:46;68914.94;;;27.57;67.04
44144;BME280;43510;51.920;4.492;2022-08-03T07:41:11;68881.00;;;27.27;67.51
44144;BME280;43510;51.920;4.492;2022-08-03T07:43:36;68840.31;;;26.90;68.70
44144;BME280;43510;51.920;4.492;2022-08-03T07:46:02;68806.41;;;26.60;70.32
44144;BME280;43510;51.920;4.492;2022-08-03T07:48:27;68799.63;;;26.54;71.01
44144;BME280;43510;51.920;4.492;2022-08-03T07:50:53;68817.69;;;26.70;70.65
44144;BME280;43510;51.920;4.492;2022-08-03T07:53:18;68846.84;;;26.91;70.05
44144;BME280;43510;51.920;4.492;2022-08-03T07:55:44;68849.94;;;26.99;69.76
44144;BME280;43510;51.920;4.492;2022-08-03T07:58:10;68857.72;;;27.03;68.96
44144;BME280;43510;51.920;4.492;2022-08-03T08:00:40;68881.44;;;27.25;67.86
44144;BME280;43510;51.920;4.492;2022-08-03T08:03:06;68905.88;;;27.49;67.13
44144;BME280;43510;51.920;4.492;2022-08-03T08:05:32;68929.38;;;27.65;67.01
44144;BME280;43510;51.920;4.492;2022-08-03T08:07:59;68922.28;;;27.64;65.94
44144;BME280;43510;51.920;4.492;2022-08-03T08:10:24;68899.66;;;27.43;66.51
44144;BME280;43510;51.920;4.492;2022-08-03T08:12:50;68890.50;;;27.33;67.50
44144;BME280;43510;51.920;4.492;2022-08-03T08:15:15;68892.19;;;27.34;67.86
44144;BME280;43510;51.920;4.492;2022-08-03T08:17:46;68892.19;;;27.34;67.22
44144;BME280;43510;51.920;4.492;2022-08-03T08:20:16;68913.81;;;27.56;66.40
44144;BME280;43510;51.920;4.492;2022-08-03T08:22:41;68929.66;;;27.70;66.23
44144;BME280;43510;51.920;4.492;2022-08-03T08:25:07;68933.44;;;27.71;65.70
44144;BME280;43510;51.920;4.492;2022-08-03T08:27:33;68921.72;;;27.63;65.97
44144;BME280;43510;51.920;4.492;2022-08-03T08:30:05;68920.03;;;27.61;65.81
44144;BME280;43510;51.920;4.492;2022-08-03T08:32:31;68914.69;;;27.52;65.81
44144;BME280;43510;51.920;4.492;2022-08-03T08:34:56;68922.28;;;27.64;65.54
44144;BME280;43510;51.920;4.492;2022-08-03T08:37:21;68917.63;;;27.57;65.83
44144;BME280;43510;51.920;4.492;2022-08-03T08:39:47;68911.53;;;27.54;65.79
44144;BME280;43510;51.920;4.492;2022-08-03T08:42:14;68918.31;;;27.60;65.34
44144;BME280;43510;51.920;4.492;2022-08-03T08:44:39;68930.06;;;27.68;65.38
44144;BME280;43510;51.920;4.492;2022-08-03T08:47:06;68936.84;;;27.74;64.67
44144;BME280;43510;51.920;4.492;2022-08-03T08:49:34;68933.03;;;27.73;64.58
44144;BME280;43510;51.920;4.492;2022-08-03T08:52:02;68939.38;;;27.81;64.35
44144;BME280;43510;51.920;4.492;2022-08-03T08:54:28;68956.22;;;27.94;63.75
44144;BME280;43510;51.920;4.492;2022-08-03T08:56:56;68964.41;;;28.06;63.35
44144;BME280;43510;51.920;4.492;2022-08-03T08:59:25;68987.31;;;28.22;62.26
44144;BME280;43510;51.920;4.492;2022-08-03T09:01:55;68977.56;;;28.11;62.86
44144;BME280;43510;51.920;4.492;2022-08-03T09:04:21;68962.13;;;28.04;62.54
44144;BME280;43510;51.920;4.492;2022-08-03T09:06:46;68977.56;;;28.11;62.52
44144;BME280;43510;51.920;4.492;2022-08-03T09:09:12;68978.28;;;28.14;62.67
44144;BME280;43510;51.920;4.492;2022-08-03T09:11:41;68984.94;;;28.17;62.54
44144;BME280;43510;51.920;4.492;2022-08-03T09:14:08;68991.84;;;28.26;62.63
44144;BME280;43510;51.920;4.492;2022-08-03T09:16:33;69006.97;;;28.37;61.95
44144;BME280;43510;51.920;4.492;2022-08-03T09:19:11;69024.66;;;28.55;61.54
44144;BME280;43510;51.920;4.492;2022-08-03T09:21:38;69032.00;;;28.62;60.75
44144;BME280;43510;51.920;4.492;2022-08-03T09:24:05;69045.03;;;28.73;60.19
44144;BME280;43510;51.920;4.492;2022-08-03T09:26:32;69058.91;;;28.81;59.85
44144;BME280;43510;51.920;4.492;2022-08-03T09:29:08;69065.41;;;28.92;59.25
44144;BME280;43510;51.920;4.492;2022-08-03T09:31:37;69079.44;;;29.02;58.54
44144;BME280;43510;51.920;4.492;2022-08-03T09:34:07;69094.69;;;29.15;58.27
44144;BME280;43510;51.920;4.492;2022-08-03T09:36:44;69094.69;;;29.15;58.36
44144;BME280;43510;51.920;4.492;2022-08-03T09:39:12;69088.59;;;29.12;56.85
44144;BME280;43510;51.920;4.492;2022-08-03T09:41:39;69087.59;;;29.14;56.65
44144;BME280;43510;51.920;4.492;2022-08-03T09:44:08;69094.38;;;29.20;56.56
44144;BME280;43510;51.920;4.492;2022-08-03T09:46:53;69112.97;;;29.34;56.73
44144;BME280;43510;51.920;4.492;2022-08-03T09:49:19;69112.38;;;29.34;56.54
44144;BME280;43510;51.920;4.492;2022-08-03T09:51:45;69117.94;;;29.36;56.54
44144;BME280;43510;51.920;4.492;2022-08-03T09:54:10;69119.75;;;29.40;56.21
44144;BME280;43510;51.920;4.492;2022-08-03T09:56:43;69131.06;;;29.50;55.99
44144;BME280;43510;51.920;4.492;2022-08-03T09:59:12;69157.53;;;29.72;55.08
44144;BME280;43510;51.920;4.492;2022-08-03T10:01:38;69148.63;;;29.66;55.11
44144;BME280;43510;51.920;4.492;2022-08-03T10:04:12;69159.38;;;29.76;55.10
44144;BME280;43510;51.920;4.492;2022-08-03T10:06:39;69159.63;;;29.81;55.02
44144;BME280;43510;51.920;4.492;2022-08-03T10:09:09;69177.94;;;29.90;54.57
44144;BME280;43510;51.920;4.492;2022-08-03T10:11:36;69175.78;;;29.90;54.34
44144;BME280;43510;51.920;4.492;2022-08-03T10:14:08;69176.50;;;29.93;54.61
44144;BME280;43510;51.920;4.492;2022-08-03T10:16:37;69176.38;;;29.91;53.78
44144;BME280;43510;51.920;4.492;2022-08-03T10:19:04;69161.06;;;29.77;54.66
44144;BME280;43510;51.920;4.492;2022-08-03T10:21:36;69182.34;;;29.91;54.20
44144;BME280;43510;51.920;4.492;2022-08-03T10:24:04;69191.09;;;30.04;54.18
44144;BME280;43510;51.920;4.492;2022-08-03T10:26:34;69210.91;;;30.22;53.08
44144;BME280;43510;51.920;4.492;2022-08-03T10:29:04;69205.50;;;30.22;52.71
44144;BME280;43510;51.920;4.492;2022-08-03T10:31:39;69217.00;;;30.25;53.08
44144;BME280;43510;51.920;4.492;2022-08-03T10:34:18;69228.47;;;30.37;53.24
44144;BME280;43510;51.920;4.492;2022-08-03T10:36:46;69279.03;;;30.85;52.03
44144;BME280;43510;51.920;4.492;2022-08-03T10:39:13;69269.28;;;30.74;51.13
44144;BME280;43510;51.920;4.492;2022-08-03T10:41:43;69277.63;;;30.79;51.44
44144;BME280;43510;51.920;4.492;2022-08-03T10:44:22;69273.66;;;30.75;50.71
44144;BME280;43510;51.920;4.492;2022-08-03T10:46:49;69274.38;;;30.78;50.64
44144;BME280;43510;51.920;4.492;2022-08-03T10:49:16;69270.38;;;30.75;50.94
44144;BME280;43510;51.920;4.492;2022-08-03T10:51:46;69281.03;;;30.82;50.69
44144;BME280;43510;51.920;4.492;2022-08-03T10:57:01;69264.72;;;30.70;50.93
44144;BME280;43510;51.920;4.492;2022-08-03T11:02:14;69241.50;;;30.49;50.22
44144;BME280;43510;51.920;4.492;2022-08-03T11:04:40;69244.63;;;30.47;50.16
44144;BME280;43510;51.920;4.492;2022-08-03T11:09:45;69261.09;;;30.62;49.97
44144;BME280;43510;51.920;4.492;2022-08-03T11:12:31;69279.34;;;30.80;49.93
44144;BME280;43510;51.920;4.492;2022-08-03T11:15:03;69280.59;;;30.84;50.02
44144;BME280;43510;51.920;4.492;2022-08-03T11:17:30;69297.47;;;30.97;49.53
44144;BME280;43510;51.920;4.492;2022-08-03T11:19:56;69310.09;;;31.10;49.52
44144;BME280;43510;51.920;4.492;2022-08-03T11:22:22;69318.00;;;31.17;49.21
44144;BME280;43510;51.920;4.492;2022-08-03T11:27:32;69334.44;;;31.32;49.00
44144;BME280;43510;51.920;4.492;2022-08-03T11:35:21;69355.97;;;31.51;49.13
44144;BME280;43510;51.920;4.492;2022-08-03T11:40:42;69376.28;;;31.67;48.61
44144;BME280;43510;51.920;4.492;2022-08-03T11:46:09;69388.16;;;31.78;47.23
44144;BME280;43510;51.920;4.492;2022-08-03T11:48:48;69379.66;;;31.70;46.94
44144;BME280;43510;51.920;4.492;2022-08-03T11:51:23;69383.75;;;31.76;46.03
44144;BME280;43510;51.920;4.492;2022-08-03T11:54:06;69384.31;;;31.77;44.45
44144;BME280;43510;51.920;4.492;2022-08-03T11:56:47;69374.81;;;31.71;44.59
44144;BME280;43510;51.920;4.492;2022-08-03T11:59:15;69373.44;;;31.65;45.21
44144;BME280;43510;51.920;4.492;2022-08-03T12:01:42;69370.59;;;31.62;44.78
44144;BME280;43510;51.920;4.492;2022-08-03T12:04:08;69376.53;;;31.72;45.10
44144;BME280;43510;51.920;4.492;2022-08-03T12:06:34;69399.53;;;31.88;44.47
44144;BME280;43510;51.920;4.492;2022-08-03T12:09:19;69403.59;;;31.94;44.40
44144;BME280;43510;51.920;4.492;2022-08-03T12:11:47;69407.00;;;31.97;44.60
44144;BME280;43510;51.920;4.492;2022-08-03T12:14:18;69418.91;;;32.08;43.90
44144;BME280;43510;51.920;4.492;2022-08-03T12:16:48;69417.78;;;32.07;44.11
44144;BME280;43510;51.920;4.492;2022-08-03T12:19:14;69419.38;;;32.06;43.90
44144;BME280;43510;51.920;4.492;2022-08-03T12:21:47;69428.00;;;32.16;44.06
44144;BME280;43510;51.920;4.492;2022-08-03T12:24:15;69441.03;;;32.27;43.36
44144;BME280;43510;51.920;4.492;2022-08-03T12:26:46;69430.25;;;32.18;42.87
44144;BME280;43510;51.920;4.492;2022-08-03T12:29:17;69420.31;;;32.14;43.42
44144;BME280;43510;51.920;4.492;2022-08-03T12:31:42;69441.03;;;32.27;43.67
44144;BME280;43510;51.920;4.492;2022-08-03T12:34:08;69446.16;;;32.32;43.47
44144;BME280;43510;51.920;4.492;2022-08-03T12:36:35;69448.19;;;32.29;42.88
44144;BME280;43510;51.920;4.492;2022-08-03T12:39:06;69424.84;;;32.18;42.56
44144;BME280;43510;51.920;4.492;2022-08-03T12:41:37;69443.31;;;32.29;43.04
44144;BME280;43510;51.920;4.492;2022-08-03T12:44:05;69460.31;;;32.45;42.59
44144;BME280;43510;51.920;4.492;2022-08-03T12:46:36;69460.91;;;32.45;42.79
44144;BME280;43510;51.920;4.492;2022-08-03T12:49:07;69475.63;;;32.58;43.32
44144;BME280;43510;51.920;4.492;2022-08-03T12:51:54;69487.00;;;32.68;42.66
44144;BME280;43510;51.920;4.492;2022-08-03T12:54:25;69500.63;;;32.80;42.74
44144;BME280;43510;51.920;4.492;2022-08-03T12:56:58;69501.28;;;32.83;42.53
44144;BME280;43510;51.920;4.492;2022-08-03T12:59:26;69511.72;;;32.86;42.19
44144;BME280;43510;51.920;4.492;2022-08-03T13:01:51;69499.59;;;32.82;41.91
44144;BME280;43510;51.920;4.492;2022-08-03T13:04:34;69515.38;;;32.94;41.87
44144;BME280;43510;51.920;4.492;2022-08-03T13:07:05;69527.84;;;33.05;41.28
44144;BME280;43510;51.920;4.492;2022-08-03T13:09:46;69532.94;;;33.09;41.30
44144;BME280;43510;51.920;4.492;2022-08-03T13:12:14;69506.84;;;32.86;41.08
44144;BME280;43510;51.920;4.492;2022-08-03T13:14:48;69512.41;;;32.89;41.02
44144;BME280;43510;51.920;4.492;2022-08-03T13:17:15;69507.66;;;32.92;41.14
44144;BME280;43510;51.920;4.492;2022-08-03T13:19:44;69516.81;;;32.90;40.84
44144;BME280;43510;51.920;4.492;2022-08-03T13:24:40;69515.81;;;32.92;41.08
44144;BME280;43510;51.920;4.492;2022-08-03T13:27:06;69518.75;;;32.97;40.74
44144;BME280;43510;51.920;4.492;2022-08-03T13:29:33;69516.38;;;32.92;41.11
44144;BME280;43510;51.920;4.492;2022-08-03T13:31:59;69518.75;;;32.97;40.76
44144;BME280;43510;51.920;4.492;2022-08-03T13:34:24;69520.91;;;32.96;41.06
44144;BME280;43510;51.920;4.492;2022-08-03T13:36:51;69506.84;;;32.86;41.28
44144;BME280;43510;51.920;4.492;2022-08-03T13:39:19;69498.34;;;32.78;40.89
44144;BME280;43510;51.920;4.492;2022-08-03T13:41:45;69497.09;;;32.75;41.45